Saint Clement, Missouri
Current Conditions -  °F | °C
As of 12:35 PM on Thursday 30 Oct 2014 (Local Time) from KPPQ Reporting Station
Light Rain Light Rain  
Wind Chill: 47°   Ceiling: 7500
Heat Index: 50°   Visibility: 10mi
Dew Point: 44°   Wind: 7mph
Humidity: 79%   Direction: 150°SSE
Pressure: 30.07"   Gusts: NA
Location:  39.321°N, 91.1912°W
Report Text: KPPQ 301735Z AUTO 15006KT 10SM -RA SCT055 OVC075 10/07 A3007 RMK AO2 P0001 T00990065
Loading
Personal Weather Stations






























Interactive Weather Map New forecast layout! Learn more

10-Day Weather Forecast

Advertisements
Track Severe Weather on mobile